Skip Navigation Links Skip Navigation Links

Current Weather

Elefsis Airport, Greece

For information only: do not use for flight planning or navigation.
Latest weather
Observation time Friday, January 28, 2022 6:20 AM EET
Local time Friday, January 28, 2022 6:50 AM EET
Flight conditions Visual Meteorological Conditions
Winds
Wind direction North (350°)
Wind speed 6 mph
Visibility 6.2 mi.
Sky condition
Ceiling unlimited
Sky clear
Temperature 34°F
Dewpoint 27°F
Altimeter 30.15 in.Hg
Derived measurements
Relative humidity 75%
Wind chill 29°F
Density altitude -1852 ft.
Remarks
Ceiling and visibility OK.
METAR LGEL 280420Z 35005KT CAVOK 01/M03 Q1021

Settings

Location code

InnerDrive.Weather 4.0.6770.0 Release CLR 4.0.30319.42000
Copyright ©2018 Inner Drive Technology. All rights reserved. Portions Copyright ©1986-2018 David Braverman.

Find weather

Site navigation


Skip Navigation Links

Place info

Page info

PayPal - The safer, easier way to pay online!

Return home.

Copyright ©2022 Inner Drive Technology. Purveyors of fine, hand-crafted computer software. Page printed 2022-01-28T04:50:31 UTC.